createdAt,value
2023-03-26T00:02:30.327Z,2.90
2023-03-26T00:04:58.690Z,2.90
2023-03-26T00:07:28.781Z,3.17
2023-03-26T00:09:58.846Z,3.00
2023-03-26T00:12:27.087Z,2.90
2023-03-26T00:14:55.603Z,3.38
2023-03-26T00:17:25.034Z,3.30
2023-03-26T00:19:54.129Z,3.13
2023-03-26T00:22:24.404Z,3.50
2023-03-26T00:24:53.058Z,3.40
2023-03-26T00:27:21.625Z,3.70
2023-03-26T00:29:49.935Z,3.40
2023-03-26T00:32:18.418Z,3.15
2023-03-26T00:34:48.299Z,3.33
2023-03-26T00:37:16.635Z,3.15
2023-03-26T00:39:45.053Z,3.20
2023-03-26T00:42:15.608Z,2.90
2023-03-26T00:44:43.859Z,2.83
2023-03-26T00:47:12.016Z,3.97
2023-03-26T00:49:40.455Z,4.32
2023-03-26T00:52:09.482Z,5.60
2023-03-26T00:54:38.009Z,5.82
2023-03-26T00:57:07.168Z,6.90
2023-03-26T00:59:36.287Z,7.25
2023-03-26T01:02:04.965Z,8.68
2023-03-26T01:04:35.342Z,9.40
2023-03-26T01:07:11.051Z,9.82
2023-03-26T01:09:46.572Z,9.85
2023-03-26T01:12:17.666Z,11.00
2023-03-26T01:14:48.609Z,11.05
2023-03-26T01:17:18.595Z,11.55
2023-03-26T01:20:13.783Z,12.30
2023-03-26T01:22:49.865Z,11.57
2023-03-26T01:25:19.001Z,11.50
2023-03-26T01:27:55.075Z,11.20
2023-03-26T01:30:42.933Z,11.80
2023-03-26T01:33:31.006Z,11.05
2023-03-26T01:36:41.935Z,11.73
2023-03-26T01:39:39.617Z,11.55
2023-03-26T01:42:14.934Z,11.93
2023-03-26T01:44:57.896Z,11.25
2023-03-26T01:47:26.682Z,10.57
2023-03-26T01:49:54.880Z,10.80
2023-03-26T01:52:26.664Z,10.63
2023-03-26T01:54:56.327Z,11.65
2023-03-26T01:57:37.342Z,10.55
2023-03-26T02:00:18.300Z,9.50
2023-03-26T02:02:55.615Z,10.60
2023-03-26T02:05:33.980Z,10.57
2023-03-26T02:08:17.261Z,10.23
2023-03-26T02:10:49.341Z,9.98
2023-03-26T02:13:18.081Z,10.60
2023-03-26T02:16:04.080Z,10.77
2023-03-26T02:18:39.393Z,10.20
2023-03-26T02:21:20.968Z,10.98
2023-03-26T02:24:04.399Z,10.00
2023-03-26T02:26:37.936Z,10.48
2023-03-26T02:29:21.037Z,10.95
2023-03-26T02:31:51.104Z,10.52
2023-03-26T02:34:19.527Z,10.23
2023-03-26T02:36:52.440Z,9.15
2023-03-26T02:39:21.635Z,10.18
2023-03-26T02:41:58.166Z,11.55
2023-03-26T02:44:28.170Z,10.27
2023-03-26T02:46:59.740Z,9.98
2023-03-26T02:49:48.007Z,10.65
2023-03-26T02:52:35.003Z,11.33
2023-03-26T02:55:04.519Z,11.48
2023-03-26T02:57:33.801Z,11.27
2023-03-26T03:00:23.144Z,11.30
2023-03-26T03:03:10.472Z,11.13
2023-03-26T03:06:05.404Z,12.20
2023-03-26T03:08:54.839Z,11.25
2023-03-26T03:11:49.060Z,11.00
2023-03-26T03:14:17.712Z,11.30
2023-03-26T03:16:45.989Z,11.73
2023-03-26T03:19:14.623Z,11.38
2023-03-26T03:21:43.466Z,11.60
2023-03-26T03:24:11.950Z,11.63
2023-03-26T03:26:48.261Z,11.93
2023-03-26T03:29:48.253Z,11.40
2023-03-26T03:32:43.311Z,9.68
2023-03-26T03:35:12.407Z,9.85
